createdAt,value
2023-02-19T00:02:49.820Z,5.30
2023-02-19T00:06:54.497Z,5.07
2023-02-19T00:11:02.326Z,5.50
2023-02-19T00:15:06.316Z,4.93
2023-02-19T00:19:13.953Z,5.07
2023-02-19T00:23:18.499Z,4.38
2023-02-19T00:27:21.787Z,5.85
2023-02-19T00:31:27.657Z,5.63
2023-02-19T00:35:31.250Z,3.97
2023-02-19T00:39:36.585Z,5.47
2023-02-19T00:43:39.987Z,5.15
2023-02-19T00:47:43.114Z,5.43
2023-02-19T00:51:47.229Z,6.13
2023-02-19T00:55:54.439Z,6.40
2023-02-19T01:00:01.686Z,6.28
2023-02-19T01:04:06.844Z,7.03
2023-02-19T01:08:13.652Z,6.53
2023-02-19T01:12:28.437Z,6.20
2023-02-19T01:16:35.100Z,7.07
2023-02-19T01:20:41.069Z,6.25
2023-02-19T01:24:47.892Z,6.45
2023-02-19T01:28:52.925Z,6.72
2023-02-19T01:32:59.472Z,5.97
2023-02-19T01:37:03.480Z,6.90
2023-02-19T01:41:10.049Z,6.05
2023-02-19T01:45:32.005Z,5.38
2023-02-19T01:49:39.110Z,6.38
2023-02-19T01:53:45.094Z,5.82
2023-02-19T01:57:52.985Z,5.55
2023-02-19T02:02:00.844Z,5.63
2023-02-19T02:06:20.398Z,4.95
2023-02-19T02:10:25.850Z,5.95
2023-02-19T02:14:31.627Z,5.30
2023-02-19T02:18:44.051Z,5.72
2023-02-19T02:22:50.831Z,5.20
2023-02-19T02:27:06.009Z,5.47
2023-02-19T02:31:12.259Z,5.82
2023-02-19T02:35:19.456Z,5.72
2023-02-19T02:39:25.477Z,5.03
2023-02-19T02:43:28.603Z,5.40
2023-02-19T02:47:42.611Z,4.95
2023-02-19T02:51:49.344Z,5.43
2023-02-19T02:55:53.447Z,5.85
2023-02-19T02:59:57.275Z,5.38
2023-02-19T03:08:11.206Z,5.57
2023-02-19T03:12:33.941Z,6.65
2023-02-19T03:17:08.148Z,5.93
2023-02-19T03:21:13.648Z,6.20
2023-02-19T03:25:41.519Z,6.78
2023-02-19T03:29:46.521Z,6.22
2023-02-19T03:33:58.484Z,6.75
2023-02-19T03:38:06.594Z,6.50
2023-02-19T03:42:17.928Z,6.32
2023-02-19T03:46:26.418Z,3.85
2023-02-19T03:50:31.351Z,6.47
2023-02-19T03:54:40.702Z,6.95
2023-02-19T03:58:52.870Z,5.40
2023-02-19T04:02:59.406Z,5.85
2023-02-19T04:07:09.533Z,6.57
2023-02-19T04:15:22.087Z,6.20
2023-02-19T04:19:27.432Z,5.72
2023-02-19T04:23:34.240Z,5.85
2023-02-19T04:27:41.712Z,6.13
2023-02-19T04:31:45.460Z,5.07
2023-02-19T04:35:48.984Z,6.18
2023-02-19T04:39:55.130Z,6.93
2023-02-19T04:43:59.934Z,6.72
2023-02-19T04:48:07.702Z,6.20
2023-02-19T04:52:11.505Z,6.88
2023-02-19T04:56:23.935Z,6.22
2023-02-19T05:00:29.510Z,6.10
2023-02-19T05:04:34.653Z,6.82
2023-02-19T05:08:46.564Z,6.28
2023-02-19T05:12:53.117Z,6.70
2023-02-19T05:17:00.099Z,6.22
2023-02-19T05:21:09.479Z,7.38
2023-02-19T05:25:17.242Z,6.57
2023-02-19T05:29:31.922Z,6.05
2023-02-19T05:38:10.731Z,6.72
2023-02-19T05:42:16.595Z,5.13
2023-02-19T05:46:22.159Z,3.85
2023-02-19T05:50:42.120Z,5.90
2023-02-19T05:54:47.751Z,4.93
2023-02-19T05:58:58.707Z,5.35
2023-02-19T06:03:06.217Z,5.10
2023-02-19T06:07:14.077Z,5.38
2023-02-19T06:11:20.736Z,4.18
2023-02-19T06:15:24.896Z,4.47
2023-02-19T06:19:41.840Z,4.40
2023-02-19T06:23:49.983Z,4.30
2023-02-19T06:27:53.457Z,3.67
2023-02-19T06:31:59.033Z,4.35
2023-02-19T06:36:08.668Z,4.82
2023-02-19T06:40:17.416Z,4.55
2023-02-19T06:44:24.992Z,5.75
2023-02-19T06:48:31.021Z,4.82
2023-02-19T06:52:35.030Z,4.03
2023-02-19T06:56:51.205Z,4.07
2023-02-19T07:00:58.913Z,4.40
2023-02-19T07:05:02.374Z,4.10
2023-02-19T07:09:07.004Z,5.50
2023-02-19T07:13:11.330Z,5.20
2023-02-19T07:17:14.510Z,3.25
2023-02-19T07:21:22.036Z,3.40
2023-02-19T07:25:26.008Z,3.15
2023-02-19T07:33:36.770Z,3.15
2023-02-19T07:37:40.122Z,2.95
2023-02-19T07:41:43.357Z,2.90
2023-02-19T07:45:47.864Z,3.00
2023-02-19T07:49:50.921Z,2.50
2023-02-19T07:53:54.908Z,2.97
2023-02-19T07:57:59.497Z,3.30
2023-02-19T08:02:20.889Z,3.08
2023-02-19T08:06:24.278Z,3.10
2023-02-19T08:15:02.072Z,3.83
2023-02-19T08:19:06.425Z,3.60
2023-02-19T08:23:09.511Z,3.70
2023-02-19T08:27:12.370Z,3.35
2023-02-19T08:31:15.558Z,3.60
2023-02-19T08:35:20.551Z,3.65
2023-02-19T08:39:23.497Z,3.40
2023-02-19T08:43:26.218Z,3.00
2023-02-19T08:47:29.137Z,3.63
2023-02-19T08:51:33.578Z,3.17
2023-02-19T08:55:38.653Z,2.67
2023-02-19T08:59:41.503Z,2.78
2023-02-19T09:03:44.841Z,3.33
2023-02-19T09:07:49.543Z,3.38
2023-02-19T09:11:52.300Z,3.13
2023-02-19T09:15:57.077Z,3.08
2023-02-19T09:20:01.126Z,2.78
2023-02-19T09:24:06.135Z,3.55
2023-02-19T09:28:09.025Z,3.55
2023-02-19T09:32:13.067Z,2.92
2023-02-19T09:36:20.940Z,3.20
2023-02-19T09:40:25.517Z,2.80
2023-02-19T09:44:30.981Z,2.20
2023-02-19T09:48:39.932Z,2.97
2023-02-19T09:52:45.884Z,2.58
2023-02-19T09:56:51.513Z,3.00
2023-02-19T10:01:01.094Z,3.70
2023-02-19T10:05:09.097Z,3.10
2023-02-19T10:09:22.278Z,2.80
2023-02-19T10:13:32.488Z,2.92
2023-02-19T10:17:41.303Z,3.22
2023-02-19T10:21:44.792Z,3.00
2023-02-19T10:25:50.417Z,2.63
2023-02-19T10:29:54.756Z,2.97
2023-02-19T10:34:00.458Z,2.42
2023-02-19T10:38:06.825Z,2.08
2023-02-19T10:42:16.866Z,2.75
2023-02-19T10:50:32.058Z,1.92
2023-02-19T10:54:36.144Z,2.05
2023-02-19T10:58:42.366Z,2.25
2023-02-19T11:02:46.888Z,2.67
2023-02-19T11:06:49.795Z,2.97
2023-02-19T11:10:52.850Z,2.63
2023-02-19T11:14:56.926Z,2.78
2023-02-19T11:19:01.229Z,2.65
2023-02-19T11:23:16.347Z,2.70
2023-02-19T11:27:22.389Z,3.00
2023-02-19T11:31:27.893Z,2.72
2023-02-19T11:35:32.453Z,2.00
2023-02-19T11:39:35.867Z,2.08
2023-02-19T11:44:01.074Z,2.20
2023-02-19T11:48:25.100Z,2.40
2023-02-19T11:52:35.861Z,2.55
2023-02-19T11:56:40.651Z,2.20
2023-02-19T12:00:49.354Z,2.40
2023-02-19T12:05:29.180Z,2.28
2023-02-19T12:09:41.931Z,2.30
2023-02-19T12:13:57.488Z,1.88
2023-02-19T12:18:21.412Z,2.08
2023-02-19T12:22:33.137Z,1.98
2023-02-19T12:26:40.526Z,2.13
2023-02-19T12:30:56.557Z,1.90
2023-02-19T12:39:26.942Z,1.98
2023-02-19T12:43:32.270Z,1.73
2023-02-19T12:47:39.966Z,1.73
2023-02-19T12:51:47.824Z,2.28
2023-02-19T12:55:52.956Z,2.00
2023-02-19T13:00:03.712Z,1.80
2023-02-19T13:04:20.721Z,1.42
2023-02-19T13:08:27.264Z,1.60
2023-02-19T13:12:32.766Z,1.77
2023-02-19T13:16:43.330Z,1.95
2023-02-19T13:20:46.817Z,1.63
2023-02-19T13:24:51.164Z,1.92
2023-02-19T13:29:18.285Z,1.60
2023-02-19T13:33:34.471Z,1.90
2023-02-19T13:37:37.424Z,2.50
2023-02-19T13:41:43.912Z,1.70
2023-02-19T13:45:47.241Z,1.77
2023-02-19T13:49:52.466Z,2.00
2023-02-19T13:54:02.273Z,2.35
2023-02-19T14:02:33.541Z,2.10
2023-02-19T14:07:21.125Z,2.40
2023-02-19T14:12:03.271Z,1.90
2023-02-19T14:16:46.196Z,2.13
2023-02-19T14:20:49.410Z,2.08
2023-02-19T14:24:54.045Z,1.95
2023-02-19T14:28:57.328Z,2.67
2023-02-19T14:33:10.714Z,3.35
2023-02-19T14:37:18.323Z,4.60
2023-02-19T14:41:24.345Z,2.30
2023-02-19T14:45:29.466Z,2.35
2023-02-19T14:49:38.677Z,2.10
2023-02-19T14:53:44.973Z,1.60
2023-02-19T14:57:49.767Z,4.10
2023-02-19T15:01:57.391Z,1.75
2023-02-19T15:06:09.099Z,2.42
2023-02-19T15:10:14.054Z,2.15
2023-02-19T15:14:23.884Z,2.10
2023-02-19T15:18:27.931Z,2.00
2023-02-19T15:22:33.017Z,2.20
2023-02-19T15:26:37.272Z,2.35
2023-02-19T15:30:44.284Z,2.28
2023-02-19T15:34:55.960Z,2.10
2023-02-19T15:39:02.500Z,1.98
2023-02-19T15:43:05.973Z,2.30
2023-02-19T15:47:15.230Z,2.25
2023-02-19T15:51:22.080Z,2.25
2023-02-19T15:55:31.346Z,1.58
2023-02-19T15:59:39.349Z,2.40
2023-02-19T16:03:42.322Z,2.20
2023-02-19T16:07:45.285Z,2.53
2023-02-19T16:11:51.970Z,2.63
2023-02-19T16:15:59.738Z,3.47
2023-02-19T16:20:03.819Z,2.33
2023-02-19T16:24:12.552Z,4.00
2023-02-19T16:28:24.167Z,3.25
2023-02-19T16:32:27.108Z,2.15
2023-02-19T16:36:38.154Z,3.10
2023-02-19T16:41:13.237Z,3.33
2023-02-19T16:45:18.130Z,3.65
2023-02-19T16:49:21.157Z,3.63
2023-02-19T16:53:25.918Z,3.92
2023-02-19T16:57:29.547Z,2.33
2023-02-19T17:01:34.215Z,3.38
2023-02-19T17:05:38.152Z,3.13
2023-02-19T17:09:40.980Z,4.20
2023-02-19T17:13:46.313Z,2.80
2023-02-19T17:17:50.598Z,2.40
2023-02-19T17:21:53.365Z,1.92
2023-02-19T17:25:56.179Z,2.45
2023-02-19T17:29:59.845Z,3.08
2023-02-19T17:34:05.032Z,2.33
2023-02-19T17:38:09.853Z,2.50
2023-02-19T17:42:13.128Z,2.00
2023-02-19T17:46:16.863Z,2.50
2023-02-19T17:54:25.749Z,2.30
2023-02-19T17:58:28.867Z,2.15
2023-02-19T18:02:32.210Z,1.92
2023-02-19T18:06:36.698Z,2.47
2023-02-19T18:10:40.320Z,3.60
2023-02-19T18:14:43.781Z,2.60
2023-02-19T18:18:47.085Z,2.85
2023-02-19T18:22:52.375Z,3.58
2023-02-19T18:26:56.666Z,3.35
2023-02-19T18:31:00.432Z,3.22
2023-02-19T18:39:08.418Z,4.45
2023-02-19T18:43:11.822Z,3.10
2023-02-19T18:47:15.158Z,3.05
2023-02-19T18:51:18.598Z,2.95
2023-02-19T18:55:23.298Z,3.05
2023-02-19T18:59:26.449Z,2.78
2023-02-19T19:03:31.153Z,2.65
2023-02-19T19:07:34.163Z,2.60
2023-02-19T19:11:39.024Z,3.00
2023-02-19T19:15:42.240Z,2.78
2023-02-19T19:19:45.898Z,2.70
2023-02-19T19:23:49.400Z,3.13
2023-02-19T19:27:56.603Z,2.25
2023-02-19T19:31:59.833Z,3.67
2023-02-19T19:36:03.171Z,2.92
2023-02-19T19:40:07.353Z,3.40
2023-02-19T19:44:12.253Z,2.30
2023-02-19T19:48:15.390Z,2.45
2023-02-19T19:52:18.752Z,2.58
2023-02-19T19:56:22.179Z,3.00
2023-02-19T20:00:27.220Z,2.45
2023-02-19T20:04:30.892Z,2.60
2023-02-19T20:08:33.870Z,2.90
2023-02-19T20:12:37.030Z,2.40
2023-02-19T20:16:44.585Z,2.63
2023-02-19T20:20:48.244Z,3.00
2023-02-19T20:24:52.075Z,2.45
2023-02-19T20:32:59.860Z,2.42
2023-02-19T20:37:03.272Z,2.42
2023-02-19T20:41:06.732Z,2.60
2023-02-19T20:45:10.636Z,2.47
2023-02-19T20:49:15.177Z,2.65
2023-02-19T20:53:18.421Z,2.70
2023-02-19T20:57:22.150Z,2.67
2023-02-19T21:01:27.577Z,2.90
2023-02-19T21:05:32.306Z,2.85
2023-02-19T21:09:35.549Z,3.35
2023-02-19T21:13:39.127Z,2.97
2023-02-19T21:17:42.317Z,2.95
2023-02-19T21:21:47.080Z,3.17
2023-02-19T21:25:50.440Z,3.75
2023-02-19T21:29:53.672Z,3.90
2023-02-19T21:33:57.120Z,3.47
2023-02-19T21:38:01.821Z,3.55
2023-02-19T21:42:05.420Z,3.42
2023-02-19T21:46:08.639Z,3.03
2023-02-19T21:50:12.304Z,3.25
2023-02-19T21:54:21.014Z,3.35
2023-02-19T21:58:24.312Z,3.30
2023-02-19T22:02:27.527Z,3.15
2023-02-19T22:06:32.070Z,3.33
2023-02-19T22:10:36.631Z,4.07
2023-02-19T22:14:39.722Z,3.30
2023-02-19T22:18:48.391Z,4.57
2023-02-19T22:22:51.566Z,3.85
2023-02-19T22:26:58.919Z,3.70
2023-02-19T22:31:02.078Z,3.20
2023-02-19T22:35:05.335Z,2.47
2023-02-19T22:39:12.234Z,2.60
2023-02-19T22:43:20.037Z,2.17
2023-02-19T22:47:23.231Z,2.38
2023-02-19T22:51:27.043Z,3.00
2023-02-19T22:55:31.201Z,3.08
2023-02-19T23:03:46.704Z,2.80
2023-02-19T23:07:50.117Z,2.80
2023-02-19T23:11:54.157Z,3.00
2023-02-19T23:15:58.828Z,2.75
2023-02-19T23:20:03.259Z,2.45
2023-02-19T23:24:07.743Z,2.97
2023-02-19T23:28:11.441Z,2.88
2023-02-19T23:32:20.990Z,3.03
2023-02-19T23:36:24.657Z,3.05
2023-02-19T23:40:28.413Z,2.80
2023-02-19T23:44:31.619Z,2.75
2023-02-19T23:48:36.490Z,2.95
2023-02-19T23:52:39.863Z,3.05
2023-02-19T23:56:43.048Z,3.38
